createdAt,value
2023-03-03T02:05:33.364Z,-0.67
2023-03-03T02:08:39.545Z,-0.70
2023-03-03T02:11:47.046Z,-0.74
2023-03-03T02:14:48.737Z,-0.84
2023-03-03T02:17:53.500Z,-0.79
2023-03-03T02:21:02.403Z,-0.68
2023-03-03T02:24:09.328Z,-0.65
2023-03-03T02:27:13.977Z,-0.71
2023-03-03T02:30:20.790Z,-0.71
2023-03-03T02:33:22.817Z,-0.67
2023-03-03T02:36:26.297Z,-0.75
2023-03-03T02:39:30.476Z,-0.52
2023-03-03T02:42:34.534Z,-0.58
2023-03-03T02:45:45.502Z,-0.66
2023-03-03T02:48:47.309Z,-0.74
2023-03-03T02:51:52.275Z,-0.73
2023-03-03T02:54:54.100Z,-0.47
2023-03-03T02:57:57.692Z,-0.59
2023-03-03T03:01:00.817Z,-0.60
2023-03-03T03:04:06.520Z,-0.87
2023-03-03T03:07:11.743Z,-0.92
2023-03-03T03:10:14.242Z,-0.91
2023-03-03T03:13:18.401Z,-0.59
2023-03-03T03:16:20.108Z,-0.38
2023-03-03T03:19:22.013Z,-0.62
2023-03-03T03:22:24.054Z,-0.41
2023-03-03T03:25:26.388Z,-0.20
2023-03-03T03:28:29.800Z,-0.33
2023-03-03T03:31:31.937Z,-0.52
2023-03-03T03:34:33.625Z,-0.73
2023-03-03T03:37:35.519Z,-0.64
2023-03-03T03:40:37.358Z,-0.77
2023-03-03T03:43:40.773Z,-0.70
2023-03-03T03:46:42.624Z,-0.58
2023-03-03T03:49:45.474Z,-0.64
2023-03-03T03:52:47.881Z,-0.84
2023-03-03T03:55:49.833Z,-0.93
2023-03-03T03:58:54.488Z,-1.01
2023-03-03T04:01:56.576Z,-1.08
2023-03-03T04:04:59.673Z,-1.05
2023-03-03T04:08:01.809Z,-0.96
2023-03-03T04:11:03.663Z,-0.91
2023-03-03T04:14:07.677Z,-0.82
2023-03-03T04:17:16.777Z,-0.96
2023-03-03T04:20:18.827Z,-0.83
2023-03-03T04:23:21.509Z,-0.86
2023-03-03T04:26:24.173Z,-0.75
2023-03-03T04:29:27.785Z,-0.92
2023-03-03T04:32:30.540Z,-0.98
2023-03-03T04:35:32.451Z,-1.01
2023-03-03T04:38:34.820Z,-1.16
2023-03-03T04:41:37.105Z,-0.99
2023-03-03T04:44:40.722Z,-0.99
2023-03-03T04:47:43.250Z,-0.86
2023-03-03T04:50:45.022Z,-1.09
2023-03-03T04:53:47.380Z,-1.11
2023-03-03T04:56:49.368Z,-1.17
2023-03-03T04:59:53.469Z,-1.03
2023-03-03T05:02:55.397Z,-1.23
2023-03-03T05:05:58.536Z,-1.26
2023-03-03T05:09:00.381Z,-1.35
2023-03-03T05:12:02.225Z,-1.04
2023-03-03T05:15:07.203Z,-1.13
2023-03-03T05:18:09.018Z,-1.22
2023-03-03T05:21:11.644Z,-1.23
2023-03-03T05:24:14.648Z,-1.00
2023-03-03T05:27:16.976Z,-1.03
2023-03-03T05:30:20.286Z,-1.22
2023-03-03T05:33:22.010Z,-1.25
2023-03-03T05:36:23.959Z,-1.32
2023-03-03T05:39:25.643Z,-1.34
2023-03-03T05:42:27.527Z,-1.39
2023-03-03T05:45:30.577Z,-1.47
2023-03-03T05:48:32.414Z,-1.46
2023-03-03T05:51:34.519Z,-1.47
2023-03-03T05:54:36.468Z,-1.41
2023-03-03T05:57:38.354Z,-1.34
2023-03-03T06:00:41.592Z,-1.39
2023-03-03T06:03:43.690Z,-1.41
2023-03-03T06:06:45.675Z,-1.46
2023-03-03T06:09:47.472Z,-1.39
2023-03-03T06:12:49.198Z,-1.35
2023-03-03T06:15:52.278Z,-1.14
2023-03-03T06:18:54.104Z,-1.25
2023-03-03T06:21:55.905Z,-1.31
2023-03-03T06:24:57.821Z,-1.36
2023-03-03T06:27:59.868Z,-1.30
2023-03-03T06:31:03.067Z,-1.03
2023-03-03T06:34:04.912Z,-0.92
2023-03-03T06:37:06.820Z,-0.97
2023-03-03T06:40:10.016Z,-0.96
2023-03-03T06:43:12.115Z,-1.07
2023-03-03T06:46:15.448Z,-1.06
2023-03-03T06:49:17.549Z,-0.93
2023-03-03T06:52:23.082Z,-0.62
2023-03-03T06:55:24.805Z,-0.89
2023-03-03T06:58:29.505Z,-0.81
2023-03-03T07:01:37.108Z,-0.65
2023-03-03T07:04:39.597Z,-0.80
2023-03-03T07:07:41.583Z,-0.87
2023-03-03T07:10:44.243Z,-0.90
2023-03-03T07:13:48.489Z,-0.86
2023-03-03T07:16:58.131Z,-0.80
2023-03-03T07:20:01.973Z,-0.81
2023-03-03T07:23:18.785Z,-0.80
2023-03-03T07:26:23.836Z,-0.65
2023-03-03T07:29:27.583Z,-0.79
2023-03-03T07:32:39.931Z,-0.63
2023-03-03T07:35:44.426Z,-0.62
2023-03-03T07:38:53.043Z,-0.56
2023-03-03T07:42:01.750Z,-0.51
2023-03-03T07:45:23.581Z,-0.54
2023-03-03T07:48:34.693Z,-0.29
2023-03-03T07:51:43.978Z,-0.21
2023-03-03T07:54:47.372Z,-0.07
2023-03-03T07:57:51.714Z,0.06
2023-03-03T08:01:25.993Z,0.13
2023-03-03T08:04:39.139Z,0.14
2023-03-03T08:07:40.875Z,0.28
2023-03-03T08:10:48.210Z,0.58
2023-03-03T08:13:49.974Z,0.61
2023-03-03T08:16:51.813Z,0.67
2023-03-03T08:19:56.021Z,0.90
2023-03-03T08:22:57.893Z,0.98
2023-03-03T08:25:59.860Z,1.21
2023-03-03T08:29:01.645Z,1.48
2023-03-03T08:32:03.820Z,1.67
2023-03-03T08:35:07.637Z,1.93
2023-03-03T08:38:09.981Z,2.09
2023-03-03T08:41:11.935Z,2.22
2023-03-03T08:44:13.621Z,2.46
2023-03-03T08:47:15.688Z,2.63
2023-03-03T08:50:19.493Z,2.88
2023-03-03T08:53:22.915Z,2.80
2023-03-03T08:56:24.632Z,2.84
2023-03-03T08:59:26.245Z,2.74
2023-03-03T09:02:28.180Z,2.59
2023-03-03T09:05:31.673Z,2.75
2023-03-03T09:08:33.826Z,2.62
2023-03-03T09:11:35.528Z,2.71
2023-03-03T09:14:37.422Z,2.90
2023-03-03T09:17:43.850Z,3.00
2023-03-03T09:20:49.460Z,3.25
2023-03-03T09:23:55.582Z,3.34
2023-03-03T09:26:59.013Z,3.50
2023-03-03T09:30:02.684Z,3.63
2023-03-03T09:33:23.225Z,3.55
2023-03-03T09:36:35.691Z,3.79
2023-03-03T09:39:37.564Z,3.30
2023-03-03T09:43:04.238Z,3.73
2023-03-03T09:46:17.080Z,3.66
2023-03-03T09:49:30.610Z,3.80
2023-03-03T09:52:41.049Z,3.98
2023-03-03T09:55:54.168Z,3.46
2023-03-03T09:59:07.850Z,3.85
2023-03-03T10:02:38.435Z,3.86
2023-03-03T10:05:51.319Z,4.02
2023-03-03T10:09:04.610Z,4.36
2023-03-03T10:12:17.923Z,4.50
2023-03-03T10:15:40.447Z,4.57
2023-03-03T10:18:52.214Z,4.48
2023-03-03T10:22:00.576Z,4.68
2023-03-03T10:25:16.408Z,4.49
2023-03-03T10:28:43.638Z,4.59
2023-03-03T10:31:58.573Z,4.93
2023-03-03T10:35:23.316Z,5.15
2023-03-03T10:38:35.538Z,5.37
2023-03-03T10:41:50.321Z,5.68
2023-03-03T10:45:14.025Z,5.54
2023-03-03T10:48:41.039Z,5.57
2023-03-03T10:52:01.017Z,5.65
2023-03-03T10:55:30.606Z,5.92
2023-03-03T10:58:47.324Z,6.17
2023-03-03T11:01:57.586Z,6.18
2023-03-03T11:05:29.547Z,6.21
2023-03-03T11:08:38.199Z,6.12
2023-03-03T11:11:47.436Z,6.30
2023-03-03T11:14:59.112Z,6.75
2023-03-03T11:18:15.072Z,6.89
2023-03-03T11:21:22.894Z,6.69
2023-03-03T11:24:40.275Z,6.79
2023-03-03T11:28:00.569Z,6.80
2023-03-03T11:31:13.764Z,7.08
2023-03-03T11:34:34.096Z,7.02
2023-03-03T11:37:41.887Z,7.33
2023-03-03T11:40:48.672Z,7.24
2023-03-03T11:43:55.223Z,7.38
2023-03-03T11:47:00.641Z,7.44
2023-03-03T11:50:08.592Z,7.73
2023-03-03T11:53:26.628Z,7.77
2023-03-03T11:56:38.274Z,7.65
2023-03-03T11:59:52.222Z,7.61
2023-03-03T12:03:26.531Z,7.78
2023-03-03T12:06:40.788Z,7.91
2023-03-03T12:09:49.882Z,8.33
2023-03-03T12:13:01.245Z,7.87
2023-03-03T12:16:11.113Z,8.41
2023-03-03T12:19:24.938Z,8.44
2023-03-03T12:22:34.662Z,9.28
2023-03-03T12:25:41.066Z,8.82
2023-03-03T12:28:50.267Z,8.54
2023-03-03T12:31:56.411Z,8.56
2023-03-03T12:35:06.524Z,8.87
2023-03-03T12:38:21.876Z,8.59
2023-03-03T12:41:31.525Z,8.77
2023-03-03T12:44:41.868Z,9.02
2023-03-03T12:47:50.177Z,8.67
2023-03-03T12:51:01.688Z,9.04
2023-03-03T12:54:19.305Z,9.42
2023-03-03T12:57:28.987Z,9.17
2023-03-03T13:00:43.005Z,9.05
2023-03-03T13:03:57.201Z,9.13
2023-03-03T13:07:07.747Z,9.07
2023-03-03T13:10:18.557Z,9.44
2023-03-03T13:13:27.187Z,10.17
2023-03-03T13:16:41.199Z,10.18
2023-03-03T13:19:52.058Z,10.30
2023-03-03T13:22:59.970Z,9.94
2023-03-03T13:26:14.374Z,9.76
2023-03-03T13:29:22.052Z,9.42
2023-03-03T13:32:30.954Z,10.51
2023-03-03T13:35:43.709Z,9.81
2023-03-03T13:38:49.276Z,10.69
2023-03-03T13:42:01.190Z,11.15
2023-03-03T13:45:12.816Z,10.43
2023-03-03T13:48:28.607Z,10.92
2023-03-03T13:51:43.802Z,11.18
2023-03-03T13:55:20.579Z,10.91
2023-03-03T13:58:40.608Z,11.34
2023-03-03T14:01:57.435Z,12.24
2023-03-03T14:05:02.271Z,12.15
2023-03-03T14:08:09.284Z,11.92
2023-03-03T14:11:16.970Z,12.10
2023-03-03T14:14:31.549Z,12.87
2023-03-03T14:17:41.932Z,12.38
2023-03-03T14:20:48.428Z,11.99
2023-03-03T14:23:57.193Z,12.28
2023-03-03T14:27:00.523Z,12.52
2023-03-03T14:30:33.002Z,12.27
2023-03-03T14:33:35.118Z,12.44
2023-03-03T14:36:40.141Z,12.36
2023-03-03T14:39:48.908Z,12.93
2023-03-03T14:42:55.532Z,12.44
2023-03-03T14:46:30.366Z,12.96
2023-03-03T14:49:34.556Z,13.01
2023-03-03T14:52:38.859Z,13.72
2023-03-03T14:56:22.950Z,12.12
2023-03-03T14:59:26.978Z,11.73
2023-03-03T15:02:36.798Z,12.61
2023-03-03T15:05:50.850Z,11.89
2023-03-03T15:08:52.580Z,12.33
2023-03-03T15:11:55.225Z,11.33
2023-03-03T15:15:11.610Z,11.51
2023-03-03T15:18:16.836Z,10.92
2023-03-03T15:21:23.852Z,10.75
2023-03-03T15:24:35.372Z,10.59
2023-03-03T15:27:42.259Z,10.38
2023-03-03T15:30:50.695Z,10.90
2023-03-03T15:34:03.929Z,11.15
2023-03-03T15:37:18.031Z,10.83
2023-03-03T15:40:26.841Z,10.66
2023-03-03T15:43:37.619Z,9.88
2023-03-03T15:46:50.693Z,9.84
2023-03-03T15:50:10.855Z,9.70
2023-03-03T15:53:31.534Z,9.68
2023-03-03T15:56:41.438Z,9.55
2023-03-03T16:00:09.286Z,9.24
2023-03-03T16:03:17.310Z,8.98
2023-03-03T16:06:28.582Z,8.88
2023-03-03T16:09:45.027Z,8.66
2023-03-03T16:12:55.422Z,8.58
2023-03-03T16:16:09.176Z,8.53
2023-03-03T16:19:22.084Z,8.40
2023-03-03T16:22:40.958Z,8.16
2023-03-03T16:26:05.554Z,8.11
2023-03-03T16:29:30.894Z,7.94
2023-03-03T16:32:40.614Z,7.85
2023-03-03T16:35:50.644Z,7.74
2023-03-03T16:39:01.922Z,7.58
2023-03-03T16:42:07.840Z,7.50
2023-03-03T16:45:23.963Z,7.37
2023-03-03T16:48:35.335Z,7.25
2023-03-03T16:51:49.233Z,7.16
2023-03-03T16:54:56.832Z,7.02
2023-03-03T16:58:12.701Z,6.96
2023-03-03T17:01:23.978Z,6.73
2023-03-03T17:04:39.912Z,6.54
2023-03-03T17:07:45.284Z,6.38
2023-03-03T17:10:54.047Z,6.19
2023-03-03T17:14:16.545Z,5.98
2023-03-03T17:17:29.114Z,5.68
2023-03-03T17:20:40.042Z,5.40
2023-03-03T17:23:51.975Z,5.19
2023-03-03T17:27:05.355Z,5.21
2023-03-03T17:30:16.896Z,4.86
2023-03-03T17:33:33.013Z,4.65
2023-03-03T17:36:49.526Z,4.60
2023-03-03T17:40:05.600Z,4.50
2023-03-03T17:43:15.072Z,4.37
2023-03-03T17:46:23.320Z,4.40
2023-03-03T17:49:54.501Z,4.36
2023-03-03T17:53:12.397Z,4.32
2023-03-03T17:56:19.600Z,4.00
2023-03-03T17:59:44.262Z,3.92
2023-03-03T18:03:27.906Z,3.87
2023-03-03T18:06:52.067Z,3.63
2023-03-03T18:10:17.962Z,3.36
2023-03-03T18:13:41.505Z,3.23
2023-03-03T18:16:50.900Z,3.11
2023-03-03T18:20:08.161Z,3.24
2023-03-03T18:23:29.699Z,3.06
2023-03-03T18:26:40.587Z,3.23
2023-03-03T18:30:20.588Z,3.07
2023-03-03T18:33:41.483Z,2.89
2023-03-03T18:36:53.336Z,2.82
2023-03-03T18:40:34.190Z,2.76
2023-03-03T18:43:55.481Z,2.73
2023-03-03T18:46:59.207Z,2.59
2023-03-03T18:50:16.260Z,2.54
2023-03-03T18:53:28.184Z,2.56
2023-03-03T18:56:44.880Z,2.66
2023-03-03T18:59:55.286Z,2.93
2023-03-03T19:02:59.840Z,3.26
2023-03-03T19:06:04.922Z,2.89
2023-03-03T19:09:09.307Z,2.73
2023-03-03T19:12:13.659Z,2.68
2023-03-03T19:15:53.389Z,2.48
2023-03-03T19:19:00.095Z,2.47
2023-03-03T19:22:23.702Z,2.47
2023-03-03T19:25:27.825Z,2.46
2023-03-03T19:28:40.239Z,2.26
2023-03-03T19:31:49.190Z,2.32
2023-03-03T19:34:58.053Z,2.45
2023-03-03T19:38:15.506Z,2.39
2023-03-03T19:41:28.456Z,2.25
2023-03-03T19:44:46.300Z,2.41
2023-03-03T19:47:54.558Z,2.47
2023-03-03T19:51:04.395Z,2.43
2023-03-03T19:54:20.216Z,2.74
2023-03-03T19:57:37.099Z,2.68
2023-03-03T20:00:43.374Z,2.50
2023-03-03T20:04:16.522Z,2.46
2023-03-03T20:07:28.913Z,2.34
2023-03-03T20:10:49.364Z,2.38
2023-03-03T20:14:02.130Z,2.10
2023-03-03T20:17:24.599Z,2.05
2023-03-03T20:20:45.827Z,1.87
2023-03-03T20:24:00.166Z,1.75
2023-03-03T20:27:07.416Z,1.80
2023-03-03T20:30:22.156Z,1.62
2023-03-03T20:33:37.373Z,1.61
2023-03-03T20:36:52.267Z,1.52
2023-03-03T20:40:07.315Z,1.46
2023-03-03T20:43:26.214Z,1.42
2023-03-03T20:46:38.858Z,1.45
2023-03-03T20:50:04.511Z,1.49
2023-03-03T20:53:18.237Z,1.23
2023-03-03T20:56:24.444Z,0.99
2023-03-03T20:59:35.467Z,0.89
2023-03-03T21:02:46.987Z,0.79
2023-03-03T21:05:57.653Z,0.64
2023-03-03T21:08:59.542Z,0.55
2023-03-03T21:12:09.604Z,0.35
2023-03-03T21:15:24.131Z,0.33
2023-03-03T21:18:26.733Z,0.40
2023-03-03T21:21:31.262Z,0.29
2023-03-03T21:24:53.805Z,0.26
2023-03-03T21:28:13.136Z,0.09
2023-03-03T21:31:17.222Z,0.11
2023-03-03T21:34:22.278Z,0.06
2023-03-03T21:37:43.639Z,0.08
2023-03-03T21:40:59.277Z,0.13
2023-03-03T21:44:01.163Z,0.14
2023-03-03T21:47:05.031Z,0.14
2023-03-03T21:50:08.266Z,0.07
2023-03-03T21:53:10.064Z,-0.11
2023-03-03T21:56:15.509Z,-0.17
2023-03-03T21:59:17.175Z,-0.26
2023-03-03T22:02:20.702Z,-0.34
2023-03-03T22:05:23.116Z,-0.44
2023-03-03T22:08:24.919Z,-0.50
2023-03-03T22:11:26.720Z,-0.59
2023-03-03T22:14:28.728Z,-0.65
2023-03-03T22:17:35.017Z,-0.66
2023-03-03T22:20:36.722Z,-0.69
2023-03-03T22:23:38.612Z,-0.69
2023-03-03T22:26:40.483Z,-0.68
2023-03-03T22:29:42.254Z,-0.75
2023-03-03T22:32:45.366Z,-0.84
2023-03-03T22:35:47.169Z,-0.96
2023-03-03T22:38:49.184Z,-0.98
2023-03-03T22:41:54.030Z,-0.98
2023-03-03T22:44:56.364Z,-0.96
2023-03-03T22:47:59.626Z,-0.90
2023-03-03T22:51:01.367Z,-0.96
2023-03-03T22:54:03.259Z,-1.10
2023-03-03T22:57:04.975Z,-1.21
2023-03-03T23:00:11.881Z,-1.24
2023-03-03T23:03:15.984Z,-1.21
2023-03-03T23:06:21.515Z,-1.31
2023-03-03T23:09:23.436Z,-1.33
2023-03-03T23:12:25.334Z,-1.40
2023-03-03T23:15:27.800Z,-1.33
2023-03-03T23:18:31.121Z,-1.39
2023-03-03T23:21:33.599Z,-1.39
2023-03-03T23:24:35.385Z,-1.43
2023-03-03T23:27:37.712Z,-1.52
2023-03-03T23:30:39.412Z,-1.59
2023-03-03T23:33:42.444Z,-1.54
2023-03-03T23:36:44.219Z,-1.41
2023-03-03T23:39:46.214Z,-1.47
2023-03-03T23:42:48.605Z,-1.53
2023-03-03T23:45:50.349Z,-1.48
2023-03-03T23:48:53.356Z,-1.46
2023-03-03T23:51:55.120Z,-1.59
2023-03-03T23:54:56.942Z,-1.56
2023-03-03T23:57:58.806Z,-1.66
